sensor_id;sensor_type;location;lat;lon;timestamp;pressure;altitude;pressure_sealevel;temperature;humidity
68948;BME280;55996;49.546;7.400;2022-12-01T00:01:05;99334.50;;;8.10;100.00
68948;BME280;55996;49.546;7.400;2022-12-01T00:03:32;99316.28;;;8.08;100.00
68948;BME280;55996;49.546;7.400;2022-12-01T00:08:28;99325.00;;;8.04;100.00
68948;BME280;55996;49.546;7.400;2022-12-01T00:10:53;99337.19;;;8.02;100.00
68948;BME280;55996;49.546;7.400;2022-12-01T00:13:19;99321.69;;;7.93;100.00
68948;BME280;55996;49.546;7.400;2022-12-01T00:15:44;99328.47;;;8.06;100.00
68948;BME280;55996;49.546;7.400;2022-12-01T00:18:10;99326.69;;;8.08;100.00
68948;BME280;55996;49.546;7.400;2022-12-01T00:20:35;99331.97;;;8.02;100.00
68948;BME280;55996;49.546;7.400;2022-12-01T00:23:01;99330.91;;;8.17;100.00
68948;BME280;55996;49.546;7.400;2022-12-01T00:25:27;99317.91;;;8.19;100.00
68948;BME280;55996;49.546;7.400;2022-12-01T00:27:53;99321.34;;;8.19;100.00
68948;BME280;55996;49.546;7.400;2022-12-01T00:30:20;99319.59;;;8.21;100.00
68948;BME280;55996;49.546;7.400;2022-12-01T00:32:46;99311.75;;;8.23;100.00
68948;BME280;55996;49.546;7.400;2022-12-01T00:35:13;99316.94;;;8.24;100.00
68948;BME280;55996;49.546;7.400;2022-12-01T00:37:39;99320.38;;;8.28;100.00
68948;BME280;55996;49.546;7.400;2022-12-01T00:40:06;99312.59;;;8.25;100.00
68948;BME280;55996;49.546;7.400;2022-12-01T00:42:32;99312.78;;;8.10;100.00
68948;BME280;55996;49.546;7.400;2022-12-01T00:44:57;99322.22;;;8.18;100.00
68948;BME280;55996;49.546;7.400;2022-12-01T00:47:22;99318.06;;;8.06;100.00
68948;BME280;55996;49.546;7.400;2022-12-01T00:49:48;99317.03;;;8.17;100.00
68948;BME280;55996;49.546;7.400;2022-12-01T00:52:15;99322.25;;;8.17;100.00
68948;BME280;55996;49.546;7.400;2022-12-01T00:54:41;99319.72;;;8.12;100.00
68948;BME280;55996;49.546;7.400;2022-12-01T00:57:07;99315.28;;;8.19;100.00
68948;BME280;55996;49.546;7.400;2022-12-01T00:59:32;99325.69;;;8.20;100.00
68948;BME280;55996;49.546;7.400;2022-12-01T01:01:59;99319.66;;;8.17;100.00
68948;BME280;55996;49.546;7.400;2022-12-01T01:04:24;99323.84;;;8.27;100.00
68948;BME280;55996;49.546;7.400;2022-12-01T01:06:50;99317.81;;;8.23;100.00
68948;BME280;55996;49.546;7.400;2022-12-01T01:09:15;99317.97;;;8.13;100.00
68948;BME280;55996;49.546;7.400;2022-12-01T01:11:41;99326.44;;;8.27;100.00
68948;BME280;55996;49.546;7.400;2022-12-01T01:14:07;99327.41;;;8.21;100.00
68948;BME280;55996;49.546;7.400;2022-12-01T01:16:33;99322.91;;;8.33;100.00
68948;BME280;55996;49.546;7.400;2022-12-01T01:18:58;99327.25;;;8.34;100.00
68948;BME280;55996;49.546;7.400;2022-12-01T01:21:24;99326.28;;;8.39;100.00
68948;BME280;55996;49.546;7.400;2022-12-01T01:23:51;99330.53;;;8.48;100.00
68948;BME280;55996;49.546;7.400;2022-12-01T01:26:29;99322.19;;;8.23;100.00
68948;BME280;55996;49.546;7.400;2022-12-01T01:28:59;99330.03;;;8.20;100.00
68948;BME280;55996;49.546;7.400;2022-12-01T01:31:27;99342.38;;;8.05;100.00
68948;BME280;55996;49.546;7.400;2022-12-01T01:33:54;99336.31;;;8.03;100.00
68948;BME280;55996;49.546;7.400;2022-12-01T01:36:20;99332.66;;;8.20;100.00
68948;BME280;55996;49.546;7.400;2022-12-01T01:38:46;99341.38;;;8.14;100.00
68948;BME280;55996;49.546;7.400;2022-12-01T01:41:12;99346.91;;;7.89;100.00
68948;BME280;55996;49.546;7.400;2022-12-01T01:43:52;99336.31;;;8.03;100.00
68948;BME280;55996;49.546;7.400;2022-12-01T01:46:20;99344.94;;;8.07;100.00
68948;BME280;55996;49.546;7.400;2022-12-01T01:48:52;99341.63;;;7.94;100.00
68948;BME280;55996;49.546;7.400;2022-12-01T01:51:43;99342.25;;;8.15;100.00
68948;BME280;55996;49.546;7.400;2022-12-01T01:56:47;99334.56;;;8.05;100.00
68948;BME280;55996;49.546;7.400;2022-12-01T01:59:19;99337.94;;;8.12;100.00
68948;BME280;55996;49.546;7.400;2022-12-01T02:01:47;99339.63;;;8.18;100.00
68948;BME280;55996;49.546;7.400;2022-12-01T02:04:17;99338.03;;;8.04;100.00
68948;BME280;55996;49.546;7.400;2022-12-01T02:06:44;99340.75;;;7.97;100.00
68948;BME280;55996;49.546;7.400;2022-12-01T02:09:10;99341.66;;;7.91;100.00
68948;BME280;55996;49.546;7.400;2022-12-01T02:19:44;99339.31;;;7.69;100.00
68948;BME280;55996;49.546;7.400;2022-12-01T02:28:14;99333.97;;;7.82;100.00
68948;BME280;55996;49.546;7.400;2022-12-01T02:31:04;99329.59;;;7.84;100.00
68948;BME280;55996;49.546;7.400;2022-12-01T02:33:41;99326.03;;;7.93;100.00
68948;BME280;55996;49.546;7.400;2022-12-01T02:36:18;99337.41;;;7.84;100.00
68948;BME280;55996;49.546;7.400;2022-12-01T02:41:41;99328.78;;;7.82;100.00
68948;BME280;55996;49.546;7.400;2022-12-01T02:44:15;99324.25;;;7.96;100.00
68948;BME280;55996;49.546;7.400;2022-12-01T02:46:49;99330.25;;;8.03;100.00
68948;BME280;55996;49.546;7.400;2022-12-01T02:49:23;99333.00;;;7.90;100.00
68948;BME280;55996;49.546;7.400;2022-12-01T02:51:51;99324.25;;;7.96;100.00
68948;BME280;55996;49.546;7.400;2022-12-01T02:54:19;99326.91;;;7.90;100.00
68948;BME280;55996;49.546;7.400;2022-12-01T02:56:45;99326.13;;;7.85;100.00
68948;BME280;55996;49.546;7.400;2022-12-01T02:59:12;99324.59;;;7.67;100.00
68948;BME280;55996;49.546;7.400;2022-12-01T03:17:46;99325.50;;;7.61;100.00
68948;BME280;55996;49.546;7.400;2022-12-01T03:22:53;99330.91;;;7.42;100.00
68948;BME280;55996;49.546;7.400;2022-12-01T03:25:22;99321.53;;;7.26;100.00
68948;BME280;55996;49.546;7.400;2022-12-01T03:27:51;99336.22;;;7.30;100.00
68948;BME280;55996;49.546;7.400;2022-12-01T03:30:22;99326.63;;;7.35;100.00
68948;BME280;55996;49.546;7.400;2022-12-01T03:32:53;99338.81;;;7.33;100.00
68948;BME280;55996;49.546;7.400;2022-12-01T03:35:25;99331.75;;;7.45;100.00
68948;BME280;55996;49.546;7.400;2022-12-01T03:38:01;99326.50;;;7.48;100.00
68948;BME280;55996;49.546;7.400;2022-12-01T03:40:30;99336.81;;;7.58;100.00
68948;BME280;55996;49.546;7.400;2022-12-01T03:43:00;99324.78;;;7.48;100.00
68948;BME280;55996;49.546;7.400;2022-12-01T03:45:39;99342.84;;;7.64;100.00
68948;BME280;55996;49.546;7.400;2022-12-01T03:48:08;99341.88;;;7.71;100.00
68948;BME280;55996;49.546;7.400;2022-12-01T03:53:25;99325.41;;;7.72;100.00
68948;BME280;55996;49.546;7.400;2022-12-01T03:55:59;99321.94;;;7.73;100.00
68948;BME280;55996;49.546;7.400;2022-12-01T03:58:30;99328.00;;;7.72;100.00
68948;BME280;55996;49.546;7.400;2022-12-01T04:01:00;99325.38;;;7.73;100.00
68948;BME280;55996;49.546;7.400;2022-12-01T04:03:27;99324.66;;;7.59;100.00
68948;BME280;55996;49.546;7.400;2022-12-01T04:05:52;99323.84;;;7.57;100.00
68948;BME280;55996;49.546;7.400;2022-12-01T04:08:18;99333.31;;;7.64;100.00
68948;BME280;55996;49.546;7.400;2022-12-01T04:10:43;99330.72;;;7.61;100.00
68948;BME280;55996;49.546;7.400;2022-12-01T04:13:09;99332.34;;;7.73;100.00
68948;BME280;55996;49.546;7.400;2022-12-01T04:15:49;99335.84;;;7.67;100.00
68948;BME280;55996;49.546;7.400;2022-12-01T04:18:15;99335.91;;;7.64;100.00
68948;BME280;55996;49.546;7.400;2022-12-01T04:20:41;99331.63;;;7.57;100.00
68948;BME280;55996;49.546;7.400;2022-12-01T04:23:08;99345.41;;;7.65;100.00
68948;BME280;55996;49.546;7.400;2022-12-01T04:25:33;99335.00;;;7.65;100.00
68948;BME280;55996;49.546;7.400;2022-12-01T04:27:59;99339.31;;;7.69;100.00
68948;BME280;55996;49.546;7.400;2022-12-01T04:30:24;99343.72;;;7.64;100.00
68948;BME280;55996;49.546;7.400;2022-12-01T04:32:49;99341.16;;;7.56;100.00
68948;BME280;55996;49.546;7.400;2022-12-01T04:35:15;99340.28;;;7.57;100.00
68948;BME280;55996;49.546;7.400;2022-12-01T04:37:40;99341.31;;;7.42;100.00
68948;BME280;55996;49.546;7.400;2022-12-01T04:40:06;99339.63;;;7.35;100.00
68948;BME280;55996;49.546;7.400;2022-12-01T04:42:32;99354.38;;;7.36;100.00
68948;BME280;55996;49.546;7.400;2022-12-01T04:44:58;99344.81;;;7.40;100.00
68948;BME280;55996;49.546;7.400;2022-12-01T04:47:23;99350.91;;;7.37;100.00
68948;BME280;55996;49.546;7.400;2022-12-01T04:49:49;99344.88;;;7.32;100.00
68948;BME280;55996;49.546;7.400;2022-12-01T04:52:14;99353.50;;;7.34;100.00
68948;BME280;55996;49.546;7.400;2022-12-01T04:54:40;99349.97;;;7.45;100.00
68948;BME280;55996;49.546;7.400;2022-12-01T04:57:05;99350.81;;;7.45;100.00
68948;BME280;55996;49.546;7.400;2022-12-01T04:59:30;99350.75;;;7.51;100.00
68948;BME280;55996;49.546;7.400;2022-12-01T05:01:56;99342.94;;;7.53;100.00
68948;BME280;55996;49.546;7.400;2022-12-01T05:04:21;99359.63;;;7.30;100.00
68948;BME280;55996;49.546;7.400;2022-12-01T05:06:47;99351.75;;;7.39;100.00
68948;BME280;55996;49.546;7.400;2022-12-01T05:09:13;99355.41;;;7.17;100.00
68948;BME280;55996;49.546;7.400;2022-12-01T05:11:39;99354.44;;;7.30;100.00
68948;BME280;55996;49.546;7.400;2022-12-01T05:14:05;99353.56;;;7.31;100.00
68948;BME280;55996;49.546;7.400;2022-12-01T05:16:31;99344.84;;;7.37;100.00
68948;BME280;55996;49.546;7.400;2022-12-01T05:19:00;99348.25;;;7.40;100.00
68948;BME280;55996;49.546;7.400;2022-12-01T05:21:46;99357.03;;;7.33;100.00
68948;BME280;55996;49.546;7.400;2022-12-01T05:24:12;99357.06;;;7.27;100.00
68948;BME280;55996;49.546;7.400;2022-12-01T05:26:39;99358.69;;;7.37;100.00
68948;BME280;55996;49.546;7.400;2022-12-01T05:29:05;99363.88;;;7.40;100.00
68948;BME280;55996;49.546;7.400;2022-12-01T05:31:30;99352.72;;;7.27;100.00
68948;BME280;55996;49.546;7.400;2022-12-01T05:33:56;99352.59;;;7.40;100.00
68948;BME280;55996;49.546;7.400;2022-12-01T05:36:21;99337.84;;;7.43;100.00
68948;BME280;55996;49.546;7.400;2022-12-01T05:38:47;99348.13;;;7.53;100.00
68948;BME280;55996;49.546;7.400;2022-12-01T05:41:13;99351.66;;;7.52;100.00
68948;BME280;55996;49.546;7.400;2022-12-01T05:43:39;99354.22;;;7.53;100.00
68948;BME280;55996;49.546;7.400;2022-12-01T05:46:04;99356.16;;;7.31;100.00
68948;BME280;55996;49.546;7.400;2022-12-01T05:48:30;99351.84;;;7.29;100.00
68948;BME280;55996;49.546;7.400;2022-12-01T05:50:55;99359.53;;;7.42;100.00
68948;BME280;55996;49.546;7.400;2022-12-01T05:53:21;99365.63;;;7.38;100.00
68948;BME280;55996;49.546;7.400;2022-12-01T05:55:53;99359.47;;;7.47;100.00
68948;BME280;55996;49.546;7.400;2022-12-01T05:58:20;99363.78;;;7.50;100.00
68948;BME280;55996;49.546;7.400;2022-12-01T06:00:46;99369.88;;;7.47;100.00
68948;BME280;55996;49.546;7.400;2022-12-01T06:03:12;99358.88;;;7.19;100.00
68948;BME280;55996;49.546;7.400;2022-12-01T06:05:38;99370.06;;;7.25;100.00
68948;BME280;55996;49.546;7.400;2022-12-01T06:08:03;99362.44;;;7.08;100.00
68948;BME280;55996;49.546;7.400;2022-12-01T06:10:29;99356.41;;;7.02;100.00
68948;BME280;55996;49.546;7.400;2022-12-01T06:12:54;99356.31;;;7.13;100.00
68948;BME280;55996;49.546;7.400;2022-12-01T06:15:20;99359.88;;;7.01;100.00
68948;BME280;55996;49.546;7.400;2022-12-01T06:17:45;99364.06;;;7.19;100.00
68948;BME280;55996;49.546;7.400;2022-12-01T06:20:11;99361.59;;;7.03;100.00
68948;BME280;55996;49.546;7.400;2022-12-01T06:22:36;99362.44;;;7.08;100.00
68948;BME280;55996;49.546;7.400;2022-12-01T06:25:02;99367.66;;;7.02;100.00
68948;BME280;55996;49.546;7.400;2022-12-01T06:27:28;99372.00;;;7.03;100.00
68948;BME280;55996;49.546;7.400;2022-12-01T06:29:53;99374.63;;;6.99;100.00
68948;BME280;55996;49.546;7.400;2022-12-01T06:32:19;99372.88;;;7.02;100.00
68948;BME280;55996;49.546;7.400;2022-12-01T06:34:44;99372.13;;;6.86;100.00
68948;BME280;55996;49.546;7.400;2022-12-01T06:37:10;99376.50;;;6.78;100.00
68948;BME280;55996;49.546;7.400;2022-12-01T06:39:36;99366.97;;;6.75;100.00
68948;BME280;55996;49.546;7.400;2022-12-01T06:42:01;99383.47;;;6.71;100.00
68948;BME280;55996;49.546;7.400;2022-12-01T06:44:27;99387.91;;;6.54;100.00
68948;BME280;55996;49.546;7.400;2022-12-01T06:46:52;99386.97;;;6.61;100.00
68948;BME280;55996;49.546;7.400;2022-12-01T06:49:19;99387.81;;;6.72;100.00
68948;BME280;55996;49.546;7.400;2022-12-01T06:51:45;99396.50;;;6.67;100.00
68948;BME280;55996;49.546;7.400;2022-12-01T06:54:11;99393.19;;;6.35;100.00
68948;BME280;55996;49.546;7.400;2022-12-01T06:56:37;99374.13;;;6.35;100.00
68948;BME280;55996;49.546;7.400;2022-12-01T06:59:02;99387.94;;;6.49;100.00
68948;BME280;55996;49.546;7.400;2022-12-01T07:01:28;99400.91;;;6.46;100.00
68948;BME280;55996;49.546;7.400;2022-12-01T07:03:53;99400.06;;;6.44;100.00
68948;BME280;55996;49.546;7.400;2022-12-01T07:06:19;99402.59;;;6.58;100.00
68948;BME280;55996;49.546;7.400;2022-12-01T07:08:45;99400.06;;;6.42;100.00
68948;BME280;55996;49.546;7.400;2022-12-01T07:11:12;99407.03;;;6.36;100.00
68948;BME280;55996;49.546;7.400;2022-12-01T07:13:39;99416.53;;;6.43;100.00
68948;BME280;55996;49.546;7.400;2022-12-01T07:16:06;99415.72;;;6.32;100.00
68948;BME280;55996;49.546;7.400;2022-12-01T07:18:32;99420.94;;;6.19;100.00
68948;BME280;55996;49.546;7.400;2022-12-01T07:21:03;99423.50;;;6.24;100.00
68948;BME280;55996;49.546;7.400;2022-12-01T07:23:29;99419.16;;;6.27;100.00
68948;BME280;55996;49.546;7.400;2022-12-01T07:28:24;99407.16;;;6.03;100.00
68948;BME280;55996;49.546;7.400;2022-12-01T07:30:49;99413.19;;;6.13;100.00
68948;BME280;55996;49.546;7.400;2022-12-01T07:33:15;99428.72;;;6.21;100.00
68948;BME280;55996;49.546;7.400;2022-12-01T07:35:40;99431.31;;;6.21;100.00
68948;BME280;55996;49.546;7.400;2022-12-01T07:38:05;99433.03;;;6.25;100.00
68948;BME280;55996;49.546;7.400;2022-12-01T07:40:31;99428.72;;;6.21;100.00
68948;BME280;55996;49.546;7.400;2022-12-01T07:42:56;99436.50;;;6.25;100.00
68948;BME280;55996;49.546;7.400;2022-12-01T07:45:21;99436.56;;;6.04;100.00
68948;BME280;55996;49.546;7.400;2022-12-01T07:47:51;99443.50;;;6.02;100.00
68948;BME280;55996;49.546;7.400;2022-12-01T07:50:17;99447.78;;;5.95;100.00
68948;BME280;55996;49.546;7.400;2022-12-01T07:52:42;99442.63;;;5.98;100.00
68948;BME280;55996;49.546;7.400;2022-12-01T07:55:08;99442.63;;;5.82;100.00
68948;BME280;55996;49.546;7.400;2022-12-01T07:57:34;99441.75;;;5.91;100.00
68948;BME280;55996;49.546;7.400;2022-12-01T07:59:59;99447.78;;;5.95;100.00
68948;BME280;55996;49.546;7.400;2022-12-01T08:02:25;99446.09;;;5.75;100.00
68948;BME280;55996;49.546;7.400;2022-12-01T08:04:51;99455.63;;;5.69;100.00
68948;BME280;55996;49.546;7.400;2022-12-01T08:07:16;99457.34;;;5.76;100.00
68948;BME280;55996;49.546;7.400;2022-12-01T08:09:41;99449.56;;;5.73;100.00
68948;BME280;55996;49.546;7.400;2022-12-01T08:12:09;99458.22;;;5.70;100.00
68948;BME280;55996;49.546;7.400;2022-12-01T08:14:34;99451.31;;;5.60;100.00
68948;BME280;55996;49.546;7.400;2022-12-01T08:17:00;99453.91;;;5.58;100.00
68948;BME280;55996;49.546;7.400;2022-12-01T08:19:25;99456.47;;;5.69;100.00
68948;BME280;55996;49.546;7.400;2022-12-01T08:21:51;99460.78;;;5.89;100.00
68948;BME280;55996;49.546;7.400;2022-12-01T08:24:17;99463.41;;;5.79;100.00
68948;BME280;55996;49.546;7.400;2022-12-01T08:26:42;99456.47;;;5.69;100.00
68948;BME280;55996;49.546;7.400;2022-12-01T08:29:07;99470.34;;;5.62;100.00
68948;BME280;55996;49.546;7.400;2022-12-01T08:31:33;99478.09;;;5.90;100.00
68948;BME280;55996;49.546;7.400;2022-12-01T08:34:04;99478.94;;;5.95;100.00
68948;BME280;55996;49.546;7.400;2022-12-01T08:36:30;99478.97;;;6.00;100.00
68948;BME280;55996;49.546;7.400;2022-12-01T08:38:56;99479.78;;;6.23;100.00
68948;BME280;55996;49.546;7.400;2022-12-01T08:41:22;99479.81;;;6.06;100.00
68948;BME280;55996;49.546;7.400;2022-12-01T08:43:49;99472.00;;;5.94;100.00
68948;BME280;55996;49.546;7.400;2022-12-01T08:46:14;99473.75;;;5.95;100.00
68948;BME280;55996;49.546;7.400;2022-12-01T08:48:40;99486.75;;;5.76;100.00
68948;BME280;55996;49.546;7.400;2022-12-01T08:51:08;99479.81;;;5.74;100.00
68948;BME280;55996;49.546;7.400;2022-12-01T08:53:36;99479.81;;;5.88;100.00
68948;BME280;55996;49.546;7.400;2022-12-01T08:56:05;99483.28;;;5.71;100.00
68948;BME280;55996;49.546;7.400;2022-12-01T08:58:30;99473.78;;;5.67;100.00
68948;BME280;55996;49.546;7.400;2022-12-01T09:01:04;99483.28;;;5.88;100.00
68948;BME280;55996;49.546;7.400;2022-12-01T09:03:32;99471.19;;;5.86;100.00
68948;BME280;55996;49.546;7.400;2022-12-01T09:06:05;99480.69;;;6.02;100.00
68948;BME280;55996;49.546;7.400;2022-12-01T09:08:31;99485.03;;;5.98;100.00
68948;BME280;55996;49.546;7.400;2022-12-01T09:10:57;99474.63;;;6.00;100.00
68948;BME280;55996;49.546;7.400;2022-12-01T09:13:23;99478.94;;;5.95;100.00
68948;BME280;55996;49.546;7.400;2022-12-01T09:16:01;99478.09;;;5.94;100.00
68948;BME280;55996;49.546;7.400;2022-12-01T09:18:27;99488.50;;;6.01;100.00
68948;BME280;55996;49.546;7.400;2022-12-01T09:20:53;99490.19;;;5.92;100.00
68948;BME280;55996;49.546;7.400;2022-12-01T09:23:19;99491.94;;;6.03;100.00
68948;BME280;55996;49.546;7.400;2022-12-01T09:25:44;99483.28;;;6.08;100.00
68948;BME280;55996;49.546;7.400;2022-12-01T09:28:10;99494.53;;;6.04;100.00
68948;BME280;55996;49.546;7.400;2022-12-01T09:30:35;99497.09;;;6.13;100.00
68948;BME280;55996;49.546;7.400;2022-12-01T09:33:01;99501.47;;;6.01;100.00
68948;BME280;55996;49.546;7.400;2022-12-01T09:35:26;99498.84;;;5.91;100.00
68948;BME280;55996;49.546;7.400;2022-12-01T09:37:54;99497.97;;;5.75;100.00
68948;BME280;55996;49.546;7.400;2022-12-01T09:40:19;99502.31;;;5.62;100.00
68948;BME280;55996;49.546;7.400;2022-12-01T09:42:47;99497.13;;;5.69;100.00
68948;BME280;55996;49.546;7.400;2022-12-01T09:45:26;99504.91;;;5.52;100.00
68948;BME280;55996;49.546;7.400;2022-12-01T09:47:53;99491.91;;;5.59;100.00
68948;BME280;55996;49.546;7.400;2022-12-01T09:50:22;99491.94;;;5.75;100.00
68948;BME280;55996;49.546;7.400;2022-12-01T09:55:28;99487.59;;;5.75;100.00
68948;BME280;55996;49.546;7.400;2022-12-01T09:57:58;99491.09;;;5.68;100.00
68948;BME280;55996;49.546;7.400;2022-12-01T10:00:29;99494.53;;;5.69;100.00
68948;BME280;55996;49.546;7.400;2022-12-01T10:05:54;99493.69;;;5.62;100.00
68948;BME280;55996;49.546;7.400;2022-12-01T10:08:25;99485.00;;;5.55;100.00
68948;BME280;55996;49.546;7.400;2022-12-01T10:10:54;99481.56;;;5.70;100.00
68948;BME280;55996;49.546;7.400;2022-12-01T10:15:53;99481.56;;;5.58;100.00
68948;BME280;55996;49.546;7.400;2022-12-01T10:21:13;99485.88;;;5.59;100.00
68948;BME280;55996;49.546;7.400;2022-12-01T10:23:49;99481.56;;;5.55;100.00
68948;BME280;55996;49.546;7.400;2022-12-01T10:29:28;99480.69;;;5.53;100.00
68948;BME280;55996;49.546;7.400;2022-12-01T10:32:16;99473.78;;;5.45;100.00
68948;BME280;55996;49.546;7.400;2022-12-01T10:34:42;99477.25;;;5.66;100.00
68948;BME280;55996;49.546;7.400;2022-12-01T10:37:25;99468.56;;;5.84;100.00
68948;BME280;55996;49.546;7.400;2022-12-01T10:39:53;99458.19;;;5.82;100.00
68948;BME280;55996;49.546;7.400;2022-12-01T10:43:04;99459.94;;;5.87;100.00
68948;BME280;55996;49.546;7.400;2022-12-01T10:45:20;99461.63;;;5.94;100.00
68948;BME280;55996;49.546;7.400;2022-12-01T10:50:45;99469.44;;;6.16;100.00
68948;BME280;55996;49.546;7.400;2022-12-01T10:56:19;99465.97;;;6.03;100.00
68948;BME280;55996;49.546;7.400;2022-12-01T10:58:53;99469.47;;;6.02;100.00
68948;BME280;55996;49.546;7.400;2022-12-01T11:01:45;99461.66;;;5.75;100.00
68948;BME280;55996;49.546;7.400;2022-12-01T11:06:49;99454.75;;;5.76;100.00
68948;BME280;55996;49.546;7.400;2022-12-01T11:09:28;99460.81;;;5.56;100.00
68948;BME280;55996;49.546;7.400;2022-12-01T11:11:59;99449.59;;;5.62;100.00
68948;BME280;55996;49.546;7.400;2022-12-01T11:14:44;99460.81;;;5.58;100.00
68948;BME280;55996;49.546;7.400;2022-12-01T11:17:35;99459.09;;;5.77;100.00
68948;BME280;55996;49.546;7.400;2022-12-01T11:20:32;99456.50;;;5.58;100.00
68948;BME280;55996;49.546;7.400;2022-12-01T11:26:06;99455.59;;;5.84;100.00
68948;BME280;55996;49.546;7.400;2022-12-01T11:28:35;99461.69;;;5.66;100.00
68948;BME280;55996;49.546;7.400;2022-12-01T11:31:04;99454.78;;;5.51;100.00
68948;BME280;55996;49.546;7.400;2022-12-01T11:33:38;99459.06;;;5.50;100.00
68948;BME280;55996;49.546;7.400;2022-12-01T11:36:07;99456.47;;;5.38;100.00
68948;BME280;55996;49.546;7.400;2022-12-01T11:38:33;99448.72;;;5.47;100.00
68948;BME280;55996;49.546;7.400;2022-12-01T11:40:59;99454.78;;;5.51;100.00
68948;BME280;55996;49.546;7.400;2022-12-01T11:43:35;99453.91;;;5.54;100.00
68948;BME280;55996;49.546;7.400;2022-12-01T11:46:05;99456.50;;;5.41;100.00
68948;BME280;55996;49.546;7.400;2022-12-01T11:48:33;99446.97;;;5.60;100.00
68948;BME280;55996;49.546;7.400;2022-12-01T11:53:39;99444.38;;;5.66;100.00
68948;BME280;55996;49.546;7.400;2022-12-01T11:56:28;99438.31;;;5.85;100.00
68948;BME280;55996;49.546;7.400;2022-12-01T11:59:02;99433.91;;;6.25;100.00
68948;BME280;55996;49.546;7.400;2022-12-01T12:04:03;99421.66;;;6.55;100.00
68948;BME280;55996;49.546;7.400;2022-12-01T12:17:48;99420.53;;;7.01;100.00
68948;BME280;55996;49.546;7.400;2022-12-01T12:26:08;99417.31;;;6.56;100.00
68948;BME280;55996;49.546;7.400;2022-12-01T12:31:50;99408.69;;;6.51;100.00
68948;BME280;55996;49.546;7.400;2022-12-01T12:46:11;99413.16;;;6.16;100.00
68948;BME280;55996;49.546;7.400;2022-12-01T12:51:24;99409.72;;;6.06;100.00
68948;BME280;55996;49.546;7.400;2022-12-01T12:54:27;99414.91;;;6.16;100.00
68948;BME280;55996;49.546;7.400;2022-12-01T12:56:46;99407.91;;;6.28;100.00
68948;BME280;55996;49.546;7.400;2022-12-01T13:01:54;99400.97;;;6.32;100.00
68948;BME280;55996;49.546;7.400;2022-12-01T13:04:26;99386.22;;;6.42;100.00
68948;BME280;55996;49.546;7.400;2022-12-01T13:07:02;99402.69;;;6.41;100.00
68948;BME280;55996;49.546;7.400;2022-12-01T13:09:47;99409.63;;;6.31;100.00
68948;BME280;55996;49.546;7.400;2022-12-01T13:12:31;99407.91;;;6.33;100.00
68948;BME280;55996;49.546;7.400;2022-12-01T13:15:17;99405.31;;;6.28;100.00
68948;BME280;55996;49.546;7.400;2022-12-01T13:17:48;99395.78;;;6.35;100.00
68948;BME280;55996;49.546;7.400;2022-12-01T13:20:19;99402.72;;;6.30;100.00
68948;BME280;55996;49.546;7.400;2022-12-01T13:22:47;99393.28;;;6.09;100.00
68948;BME280;55996;49.546;7.400;2022-12-01T13:25:23;99396.66;;;6.29;100.00
68948;BME280;55996;49.546;7.400;2022-12-01T13:27:51;99384.63;;;6.10;100.00
68948;BME280;55996;49.546;7.400;2022-12-01T13:30:19;99402.75;;;6.18;100.00
68948;BME280;55996;49.546;7.400;2022-12-01T13:32:46;99391.56;;;6.08;100.00
68948;BME280;55996;49.546;7.400;2022-12-01T13:35:34;99395.88;;;6.13;100.00
68948;BME280;55996;49.546;7.400;2022-12-01T13:38:31;99393.25;;;6.18;100.00
68948;BME280;55996;49.546;7.400;2022-12-01T13:43:49;99391.59;;;5.91;100.00
68948;BME280;55996;49.546;7.400;2022-12-01T13:46:21;99391.59;;;5.86;100.00
68948;BME280;55996;49.546;7.400;2022-12-01T13:51:12;99382.03;;;6.05;100.00
68948;BME280;55996;49.546;7.400;2022-12-01T13:53:53;99383.75;;;6.06;100.00
68948;BME280;55996;49.546;7.400;2022-12-01T13:56:26;99380.28;;;6.17;100.00
68948;BME280;55996;49.546;7.400;2022-12-01T13:58:59;99381.19;;;6.08;100.00
68948;BME280;55996;49.546;7.400;2022-12-01T14:03:58;99379.47;;;5.85;100.00
68948;BME280;55996;49.546;7.400;2022-12-01T14:06:39;99381.19;;;5.95;100.00
68948;BME280;55996;49.546;7.400;2022-12-01T14:09:29;99378.59;;;5.94;100.00
68948;BME280;55996;49.546;7.400;2022-12-01T14:11:58;99380.34;;;5.92;100.00
68948;BME280;55996;49.546;7.400;2022-12-01T14:14:26;99382.94;;;5.82;100.00
68948;BME280;55996;49.546;7.400;2022-12-01T14:16:55;99379.47;;;5.99;100.00
68948;BME280;55996;49.546;7.400;2022-12-01T14:19:55;99378.59;;;6.05;100.00
68948;BME280;55996;49.546;7.400;2022-12-01T14:22:44;99382.88;;;6.15;100.00
68948;BME280;55996;49.546;7.400;2022-12-01T14:27:45;99378.63;;;5.83;100.00
68948;BME280;55996;49.546;7.400;2022-12-01T14:38:41;99376.78;;;6.24;100.00
68948;BME280;55996;49.546;7.400;2022-12-01T14:41:21;99383.75;;;6.06;100.00
68948;BME280;55996;49.546;7.400;2022-12-01T14:43:50;99381.16;;;6.16;100.00
68948;BME280;55996;49.546;7.400;2022-12-01T14:49:04;99381.19;;;6.03;100.00
68948;BME280;55996;49.546;7.400;2022-12-01T14:51:34;99377.72;;;6.07;100.00
68948;BME280;55996;49.546;7.400;2022-12-01T14:54:05;99386.34;;;6.16;100.00
68948;BME280;55996;49.546;7.400;2022-12-01T14:56:35;99385.47;;;6.17;100.00
68948;BME280;55996;49.546;7.400;2022-12-01T14:59:20;99388.91;;;6.19;100.00
68948;BME280;55996;49.546;7.400;2022-12-01T15:01:48;99376.78;;;6.25;100.00
68948;BME280;55996;49.546;7.400;2022-12-01T15:04:15;99380.31;;;6.03;100.00
68948;BME280;55996;49.546;7.400;2022-12-01T15:06:40;99381.19;;;6.03;100.00
68948;BME280;55996;49.546;7.400;2022-12-01T15:09:15;99377.75;;;6.04;100.00
68948;BME280;55996;49.546;7.400;2022-12-01T15:16:54;99375.13;;;5.98;100.00
68948;BME280;55996;49.546;7.400;2022-12-01T15:19:22;99382.03;;;6.08;100.00
68948;BME280;55996;49.546;7.400;2022-12-01T15:21:47;99376.78;;;6.24;100.00
68948;BME280;55996;49.546;7.400;2022-12-01T15:24:25;99375.88;;;6.39;100.00
68948;BME280;55996;49.546;7.400;2022-12-01T15:26:53;99381.91;;;6.36;100.00
68948;BME280;55996;49.546;7.400;2022-12-01T15:29:29;99376.66;;;6.47;100.00
68948;BME280;55996;49.546;7.400;2022-12-01T15:32:08;99380.13;;;6.49;100.00